logo dgac
Martes 06 de Diciembre del 2022
Buscar por aerodromo o helipuerto
Ingrese nombre de aeródromo, localidad o designador OACI:
TAF: TAF SCSE 060608Z 0606/0706 29004KT CAVOK TX18/0619Z TN10/0610Z BECMG 0608/0610 SCT006 BKN010 BECMG 0614/0616 29010KT BKN013 BECMG 0618/0620 FEW015 BECMG 0702/0704 27004KT
TAF del 06/12/2022 a las 06:08 UTC
Para mayor información visite www.meteochile.cl
Período de validez: desde el 06 a las 06:00 UTC hasta el 07 a las 06:00 UTC
Viento: dirección 290 grados, velocidad 4 nudos
Visibilidad: 10 km o más,
    sin nubes bajo los 5.000 pies o bajo del MSA (Mínimo de Seguridad del Aeródromo),
    sin cumulonimbus, y sin fenómenos de tiempo significativo en el aeródromo o alrededores
Temperatura máxima: 18ºC el 06 a las 19:00 UTC
Temperatura mínima: 10ºC el 06 a las 10:00 UTC
Se espera un cambio entre las 08:00 UTC del 06 y las 10:00 UTC del 06, :
Nubes: Nubosidad parcial a 600 pies sobre el nivel del aeródromo
Nubes: Nublado a 1000 pies sobre el nivel del aeródromo
Se espera un cambio entre las 14:00 UTC del 06 y las 16:00 UTC del 06, :
Viento: dirección 290 grados, velocidad 10 nudos
Nubes: Nublado a 1300 pies sobre el nivel del aeródromo
Se espera un cambio entre las 18:00 UTC del 06 y las 20:00 UTC del 06, :
Nubes: Escasa nubosidad a 1500 pies sobre el nivel del aeródromo
Se espera un cambio entre las 02:00 UTC del 07 y las 04:00 UTC del 07, :
Viento: dirección 270 grados, velocidad 4 nudos